createdAt,value
2018-06-21T00:00:45.622Z,72.50
2018-06-21T00:03:14.094Z,72.00
2018-06-21T00:05:42.559Z,71.10
2018-06-21T00:08:14.976Z,70.80
2018-06-21T00:10:44.802Z,70.80
2018-06-21T00:13:13.257Z,70.40
2018-06-21T00:15:45.824Z,70.20
2018-06-21T00:18:14.279Z,70.00
2018-06-21T00:20:43.090Z,70.20
2018-06-21T00:23:12.162Z,70.70
2018-06-21T00:25:40.620Z,70.40
2018-06-21T00:28:09.059Z,70.10
2018-06-21T00:30:37.583Z,70.70
2018-06-21T00:33:06.114Z,70.60
2018-06-21T00:35:34.606Z,70.70
2018-06-21T00:38:03.209Z,70.70
2018-06-21T00:40:31.694Z,70.90
2018-06-21T00:43:00.410Z,71.10
2018-06-21T00:45:28.918Z,71.30
2018-06-21T00:47:57.368Z,71.30
2018-06-21T00:50:25.887Z,70.80
2018-06-21T00:52:55.043Z,71.10
2018-06-21T00:55:35.105Z,71.00
2018-06-21T00:58:04.345Z,70.80
2018-06-21T01:00:34.386Z,71.10
2018-06-21T01:03:03.564Z,71.10
2018-06-21T01:05:32.045Z,70.90
2018-06-21T01:08:00.720Z,71.00
2018-06-21T01:10:29.304Z,70.70
2018-06-21T01:12:57.788Z,70.60
2018-06-21T01:15:26.221Z,71.00
2018-06-21T01:17:54.682Z,70.30
2018-06-21T01:20:23.142Z,70.50
2018-06-21T01:22:51.670Z,70.40
2018-06-21T01:25:20.137Z,70.70
2018-06-21T01:27:49.098Z,71.00
2018-06-21T01:30:17.574Z,71.10
2018-06-21T01:32:46.166Z,70.90
2018-06-21T01:35:14.742Z,70.60
2018-06-21T01:37:43.263Z,70.80
2018-06-21T01:40:11.740Z,71.50
2018-06-21T01:42:41.203Z,71.80
2018-06-21T01:45:10.799Z,71.30
2018-06-21T01:47:39.338Z,70.80
2018-06-21T01:50:07.806Z,71.00
2018-06-21T01:52:36.545Z,71.20
2018-06-21T01:55:09.225Z,71.30
2018-06-21T01:57:37.656Z,71.90
2018-06-21T02:00:06.798Z,71.60
2018-06-21T02:02:35.766Z,71.60
2018-06-21T02:05:04.421Z,71.40
2018-06-21T02:07:32.883Z,71.40
2018-06-21T02:10:01.338Z,72.30
2018-06-21T02:12:29.814Z,72.00
2018-06-21T02:14:58.831Z,72.40
2018-06-21T02:17:31.712Z,72.60
2018-06-21T02:20:00.677Z,72.50
2018-06-21T02:22:29.585Z,72.90
2018-06-21T02:24:58.020Z,72.70
2018-06-21T02:27:26.461Z,73.30
2018-06-21T02:29:54.914Z,73.40
2018-06-21T02:32:27.304Z,73.60
2018-06-21T02:34:55.771Z,73.10
2018-06-21T02:37:24.237Z,73.30
2018-06-21T02:39:52.694Z,74.90
2018-06-21T02:42:21.224Z,73.90
2018-06-21T02:44:49.697Z,73.50
2018-06-21T02:47:18.865Z,73.80
2018-06-21T02:49:47.338Z,73.40
2018-06-21T02:52:15.859Z,73.70
2018-06-21T02:54:44.339Z,74.50
2018-06-21T02:57:12.848Z,74.30
2018-06-21T02:59:41.329Z,74.20
2018-06-21T03:02:09.761Z,73.80
2018-06-21T03:04:38.897Z,73.50
2018-06-21T03:07:07.710Z,73.20
2018-06-21T03:09:36.342Z,73.10
2018-06-21T03:12:08.589Z,73.10
2018-06-21T03:14:37.038Z,72.90
2018-06-21T03:17:05.465Z,72.60
2018-06-21T03:19:35.552Z,72.80
2018-06-21T03:22:03.974Z,72.60
2018-06-21T03:24:33.114Z,72.50
2018-06-21T03:27:01.632Z,72.40
2018-06-21T03:29:30.795Z,72.60
2018-06-21T03:31:59.350Z,72.60
2018-06-21T03:34:28.718Z,72.70
2018-06-21T03:36:57.167Z,72.90
2018-06-21T03:39:25.618Z,72.70
2018-06-21T03:41:54.412Z,72.50
2018-06-21T03:44:22.907Z,72.60
2018-06-21T03:46:51.389Z,72.30
2018-06-21T03:49:19.842Z,72.70
2018-06-21T03:51:48.367Z,73.30
2018-06-21T03:54:17.395Z,72.00
2018-06-21T03:56:50.673Z,71.50
2018-06-21T03:59:19.182Z,72.60
2018-06-21T04:01:47.813Z,72.10
2018-06-21T04:04:20.480Z,71.00
2018-06-21T04:06:49.477Z,72.10
2018-06-21T04:09:19.474Z,72.10
2018-06-21T04:11:48.671Z,72.00
2018-06-21T04:14:17.390Z,72.00
2018-06-21T04:16:45.839Z,70.30
2018-06-21T04:19:15.578Z,70.80
2018-06-21T04:21:45.943Z,71.20
2018-06-21T04:24:15.765Z,70.20
2018-06-21T04:26:44.467Z,71.00
2018-06-21T04:29:13.178Z,70.50
2018-06-21T04:31:42.133Z,70.60
2018-06-21T04:34:10.626Z,70.70
2018-06-21T04:36:39.393Z,71.70
2018-06-21T04:39:09.178Z,71.50
2018-06-21T04:41:37.675Z,70.80
2018-06-21T04:53:56.159Z,71.00
2018-06-21T04:56:29.071Z,75.80
2018-06-21T04:58:57.550Z,75.30
2018-06-21T05:14:26.424Z,75.30
2018-06-21T05:16:55.299Z,76.90
2018-06-21T05:19:28.279Z,76.40
2018-06-21T05:21:58.547Z,75.70
2018-06-21T05:24:27.649Z,74.90
2018-06-21T05:26:56.194Z,74.00
2018-06-21T05:29:24.605Z,73.90
2018-06-21T05:31:53.424Z,73.90
2018-06-21T05:34:21.890Z,73.10
2018-06-21T05:36:50.332Z,72.40
2018-06-21T05:39:19.320Z,72.50
2018-06-21T05:41:47.857Z,72.70
2018-06-21T05:44:16.612Z,72.00
2018-06-21T05:46:46.837Z,71.10
2018-06-21T05:49:16.545Z,71.30
2018-06-21T05:51:50.320Z,71.30
2018-06-21T05:54:18.753Z,70.90
2018-06-21T05:56:47.350Z,70.80
2018-06-21T05:59:16.437Z,71.50
2018-06-21T06:01:46.004Z,70.80
2018-06-21T06:04:15.343Z,70.60
2018-06-21T06:06:45.163Z,70.60
2018-06-21T06:09:14.479Z,70.70
2018-06-21T06:11:42.981Z,70.10
2018-06-21T06:14:12.442Z,69.80
2018-06-21T06:16:41.273Z,70.00
2018-06-21T06:19:09.696Z,70.10
2018-06-21T06:21:38.096Z,70.70
2018-06-21T06:24:07.368Z,70.50
2018-06-21T06:26:35.752Z,70.70
2018-06-21T06:29:04.873Z,71.20
2018-06-21T06:31:33.632Z,71.10
2018-06-21T06:34:02.197Z,70.80
2018-06-21T06:36:30.753Z,71.00
2018-06-21T06:39:16.886Z,71.60
2018-06-21T06:41:46.669Z,72.20
2018-06-21T06:44:15.125Z,71.70
2018-06-21T06:46:43.732Z,71.40
2018-06-21T06:49:12.701Z,72.70
2018-06-21T06:51:41.635Z,73.00
2018-06-21T06:54:11.104Z,72.80
2018-06-21T06:56:39.726Z,72.40
2018-06-21T06:59:08.220Z,72.10
2018-06-21T07:01:36.657Z,72.30
2018-06-21T07:04:05.212Z,72.80
2018-06-21T07:06:33.617Z,72.60
2018-06-21T07:09:02.021Z,72.30
2018-06-21T07:11:30.421Z,72.30
2018-06-21T07:13:59.500Z,72.70
2018-06-21T07:16:28.150Z,72.90
2018-06-21T07:18:56.601Z,73.30
2018-06-21T07:21:25.679Z,73.70
2018-06-21T07:23:54.109Z,78.20
2018-06-21T07:26:22.657Z,83.90
2018-06-21T07:28:51.832Z,86.60
2018-06-21T07:31:20.322Z,88.60
2018-06-21T07:33:48.729Z,88.50
2018-06-21T07:36:17.171Z,90.60
2018-06-21T07:38:46.298Z,91.20
2018-06-21T07:41:15.327Z,90.60
2018-06-21T07:43:43.788Z,87.90
2018-06-21T07:46:12.721Z,87.20
2018-06-21T07:48:41.272Z,87.50
2018-06-21T07:51:09.907Z,87.30
2018-06-21T07:53:38.321Z,89.20
2018-06-21T07:56:06.717Z,90.30
2018-06-21T07:58:35.172Z,90.50
2018-06-21T08:01:03.713Z,90.50
2018-06-21T08:03:32.504Z,90.80
2018-06-21T08:06:01.276Z,91.00
2018-06-21T08:08:30.184Z,91.00
2018-06-21T08:10:58.940Z,90.60
2018-06-21T08:13:27.465Z,90.60
2018-06-21T08:15:55.875Z,91.10
2018-06-21T08:18:24.425Z,91.20
2018-06-21T08:20:53.054Z,91.70
2018-06-21T08:23:21.746Z,90.80
2018-06-21T08:25:50.232Z,91.50
2018-06-21T08:28:18.823Z,91.50
2018-06-21T08:30:47.273Z,91.30
2018-06-21T08:33:15.692Z,90.00
2018-06-21T08:35:44.265Z,91.20
2018-06-21T08:38:12.711Z,91.40
2018-06-21T08:40:41.753Z,91.70
2018-06-21T08:43:10.185Z,90.60
2018-06-21T08:45:38.651Z,90.80
2018-06-21T08:48:07.201Z,91.10
2018-06-21T08:50:35.713Z,90.60
2018-06-21T08:53:05.005Z,90.70
2018-06-21T08:55:33.453Z,91.00
2018-06-21T08:58:01.890Z,90.50
2018-06-21T09:00:30.945Z,90.90
2018-06-21T09:02:59.437Z,91.00
2018-06-21T09:05:27.880Z,90.60
2018-06-21T09:07:56.932Z,91.00
2018-06-21T09:10:25.358Z,91.40
2018-06-21T09:12:54.380Z,91.10
2018-06-21T09:15:22.848Z,90.90
2018-06-21T09:17:51.456Z,90.70
2018-06-21T09:20:20.248Z,91.50
2018-06-21T09:22:48.753Z,90.10
2018-06-21T09:25:17.581Z,90.50
2018-06-21T09:27:46.866Z,90.80
2018-06-21T09:30:16.014Z,91.30
2018-06-21T14:19:34.190Z,43.90
2018-06-21T14:22:02.757Z,44.90
2018-06-21T14:24:31.469Z,45.80
2018-06-21T14:27:00.914Z,45.30
2018-06-21T14:29:29.357Z,45.60
2018-06-21T14:31:58.018Z,45.80
2018-06-21T14:34:26.550Z,45.80
2018-06-21T14:36:55.020Z,46.40
2018-06-21T14:39:24.186Z,45.90
2018-06-21T14:41:52.698Z,46.70
2018-06-21T14:44:21.229Z,46.90
2018-06-21T14:46:49.670Z,46.60
2018-06-21T14:49:18.203Z,45.10
2018-06-21T14:51:46.646Z,45.40
2018-06-21T14:54:15.111Z,44.10
2018-06-21T14:56:48.256Z,45.00
2018-06-21T14:59:18.857Z,41.70
2018-06-21T15:01:47.292Z,42.90
2018-06-21T15:04:16.264Z,42.80
2018-06-21T15:06:44.699Z,44.30
2018-06-21T15:09:14.222Z,42.90
2018-06-21T15:11:42.744Z,44.20
2018-06-21T15:14:11.177Z,45.90
2018-06-21T15:16:40.321Z,46.40
2018-06-21T15:19:09.392Z,45.80
2018-06-21T15:24:06.886Z,45.50
2018-06-21T15:26:36.213Z,46.30
2018-06-21T15:29:04.893Z,46.10
2018-06-21T15:31:33.307Z,47.70
2018-06-21T15:34:07.250Z,48.50
2018-06-21T15:36:35.723Z,48.40
2018-06-21T15:39:15.057Z,48.20
2018-06-21T15:41:47.658Z,46.70
2018-06-21T15:44:16.386Z,45.40
2018-06-21T15:46:44.893Z,44.90
2018-06-21T15:49:14.097Z,46.60
2018-06-21T15:51:42.597Z,47.50
2018-06-21T15:54:11.058Z,48.90
2018-06-21T15:56:40.217Z,49.80
2018-06-21T15:59:08.827Z,50.80
2018-06-21T16:01:37.345Z,50.80
2018-06-21T16:04:05.926Z,49.30
2018-06-21T16:06:34.422Z,50.00
2018-06-21T16:09:04.710Z,49.10
2018-06-21T16:11:33.186Z,48.80
2018-06-21T16:14:01.717Z,50.30
2018-06-21T16:16:32.955Z,50.90
2018-06-21T16:19:01.482Z,50.60
2018-06-21T16:21:29.933Z,51.20
2018-06-21T16:23:58.804Z,51.50
2018-06-21T16:26:27.311Z,51.80
2018-06-21T16:28:56.112Z,52.20
2018-06-21T16:31:24.773Z,52.80
2018-06-21T16:33:55.640Z,53.00
2018-06-21T16:36:28.426Z,52.90
2018-06-21T16:38:57.790Z,52.60
2018-06-21T16:41:28.250Z,52.40
2018-06-21T16:43:56.837Z,52.40
2018-06-21T16:46:26.549Z,52.70
2018-06-21T16:48:56.160Z,52.20
2018-06-21T16:51:29.285Z,53.60
2018-06-21T16:53:58.148Z,54.80
2018-06-21T16:56:26.729Z,55.40
2018-06-21T16:58:55.250Z,55.00
2018-06-21T17:01:23.717Z,56.20
2018-06-21T17:03:52.913Z,56.00
2018-06-21T17:06:21.370Z,57.20
2018-06-21T17:08:49.826Z,57.90
2018-06-21T17:11:23.616Z,58.20
2018-06-21T17:13:52.054Z,59.00
2018-06-21T17:16:21.188Z,58.60
2018-06-21T17:18:49.821Z,59.30
2018-06-21T17:21:18.278Z,58.90
2018-06-21T17:23:46.744Z,56.10
2018-06-21T17:26:17.065Z,56.20
2018-06-21T17:28:46.258Z,55.70
2018-06-21T17:31:14.798Z,54.60
2018-06-21T17:36:11.765Z,55.60
2018-06-21T17:38:40.220Z,55.10
2018-06-21T17:41:09.520Z,55.10
2018-06-21T17:43:39.224Z,55.10
2018-06-21T17:46:07.650Z,55.10
2018-06-21T17:48:36.661Z,55.10
2018-06-21T17:51:05.282Z,54.90
2018-06-21T17:53:34.523Z,54.70
2018-06-21T17:56:03.041Z,55.70
2018-06-21T17:58:32.645Z,55.60
2018-06-21T18:01:02.631Z,56.00
2018-06-21T18:03:31.602Z,55.50
2018-06-21T18:06:05.918Z,55.90
2018-06-21T18:08:34.422Z,56.40
2018-06-21T18:11:04.707Z,56.10
2018-06-21T18:13:34.242Z,56.10
2018-06-21T18:16:02.739Z,56.30
2018-06-21T18:18:33.863Z,56.90
2018-06-21T18:21:09.703Z,56.80
2018-06-21T18:28:36.531Z,57.00
2018-06-21T18:31:09.207Z,56.10
2018-06-21T18:33:38.415Z,54.50
2018-06-21T18:36:07.436Z,53.00
2018-06-21T18:38:36.753Z,52.50
2018-06-21T18:41:07.868Z,52.80
2018-06-21T18:43:36.355Z,53.40
2018-06-21T18:46:06.226Z,53.00
2018-06-21T18:48:35.393Z,53.80
2018-06-21T18:51:06.288Z,53.10
2018-06-21T18:53:36.635Z,54.20
2018-06-21T18:56:07.550Z,54.10
2018-06-21T18:58:36.090Z,54.80
2018-06-21T19:01:05.626Z,55.10
2018-06-21T19:03:34.084Z,55.50
2018-06-21T19:06:03.404Z,55.10
2018-06-21T19:09:38.002Z,55.00
2018-06-21T19:12:09.231Z,55.60
2018-06-21T19:14:38.001Z,55.80
2018-06-21T19:17:06.755Z,56.60
2018-06-21T19:19:35.274Z,56.70
2018-06-21T19:22:05.511Z,55.90
2018-06-21T19:24:34.034Z,56.20
2018-06-21T19:27:02.475Z,56.00
2018-06-21T19:29:31.381Z,57.00
2018-06-21T19:32:00.854Z,57.30
2018-06-21T19:34:31.056Z,57.20
2018-06-21T19:36:59.650Z,57.50
2018-06-21T19:39:28.073Z,57.40
2018-06-21T19:41:58.725Z,57.50
2018-06-21T19:44:27.311Z,58.00
2018-06-21T19:46:55.782Z,58.20
2018-06-21T19:49:24.903Z,57.90
2018-06-21T19:51:53.742Z,57.60
2018-06-21T19:54:22.282Z,57.60
2018-06-21T19:56:50.723Z,58.30
2018-06-21T19:59:19.157Z,58.50
2018-06-21T20:01:47.641Z,58.70
2018-06-21T20:04:16.124Z,58.50
2018-06-21T20:06:44.671Z,58.70
2018-06-21T20:09:14.005Z,58.90
2018-06-21T20:11:42.450Z,58.90
2018-06-21T20:14:11.516Z,58.40
2018-06-21T20:16:41.090Z,58.50
2018-06-21T20:19:12.349Z,58.80
2018-06-21T20:21:40.841Z,58.90
2018-06-21T20:24:09.385Z,59.00
2018-06-21T20:26:37.969Z,59.30
2018-06-21T20:29:11.917Z,59.70
2018-06-21T20:31:40.754Z,59.60
2018-06-21T20:34:09.234Z,59.70
2018-06-21T20:36:38.070Z,59.80
2018-06-21T20:39:09.084Z,60.90
2018-06-21T20:41:37.554Z,61.00
2018-06-21T20:44:06.075Z,61.80
2018-06-21T20:46:36.031Z,62.00
2018-06-21T20:49:04.913Z,63.20
2018-06-21T20:51:33.673Z,63.00
2018-06-21T20:54:02.146Z,63.00
2018-06-21T20:56:30.618Z,63.50
2018-06-21T20:58:59.193Z,62.70
2018-06-21T21:01:27.919Z,62.70
2018-06-21T21:03:56.486Z,63.20
2018-06-21T21:06:25.496Z,63.40
2018-06-21T21:08:53.936Z,65.00
2018-06-21T21:11:22.414Z,64.30
2018-06-21T21:13:50.954Z,64.80
2018-06-21T21:16:19.569Z,64.90
2018-06-21T21:18:48.386Z,64.90
2018-06-21T21:21:21.398Z,65.40
2018-06-21T21:23:50.080Z,64.70
2018-06-21T21:26:19.117Z,64.90
2018-06-21T21:28:47.971Z,65.50
2018-06-21T21:31:16.466Z,65.50
2018-06-21T21:33:44.961Z,64.30
2018-06-21T21:36:14.067Z,64.90
2018-06-21T21:38:43.234Z,64.10
2018-06-21T21:41:12.340Z,64.70
2018-06-21T21:43:41.254Z,64.80
2018-06-21T21:46:09.772Z,64.40
2018-06-21T21:48:39.052Z,64.30
2018-06-21T21:51:07.753Z,64.60
2018-06-21T21:53:36.183Z,64.80
2018-06-21T21:56:04.884Z,65.80
2018-06-21T21:58:33.334Z,65.00
2018-06-21T22:01:01.919Z,65.20
2018-06-21T22:03:31.306Z,65.40
2018-06-21T22:06:00.213Z,65.20
2018-06-21T22:08:29.830Z,65.30
2018-06-21T22:20:43.289Z,65.10
2018-06-21T22:23:12.529Z,68.50
2018-06-21T22:25:41.064Z,68.40
2018-06-21T22:28:09.806Z,68.10
2018-06-21T22:40:23.569Z,67.90
2018-06-21T22:42:51.992Z,70.00
2018-06-21T22:45:20.477Z,70.20
2018-06-21T22:47:49.037Z,69.30
2018-06-21T22:50:18.053Z,68.50
2018-06-21T22:52:47.688Z,67.80
2018-06-21T22:55:16.113Z,67.30
2018-06-21T22:57:44.579Z,67.20
2018-06-21T23:00:13.041Z,66.70
2018-06-21T23:02:41.618Z,66.60
2018-06-21T23:05:10.471Z,66.40
2018-06-21T23:07:39.214Z,66.40
2018-06-21T23:10:07.625Z,67.00
2018-06-21T23:12:36.050Z,67.50
2018-06-21T23:15:04.532Z,66.70
2018-06-21T23:17:33.221Z,66.70
2018-06-21T23:20:01.713Z,66.50
2018-06-21T23:22:30.232Z,66.00
2018-06-21T23:24:59.754Z,66.30
2018-06-21T23:27:28.421Z,66.60
2018-06-21T23:29:57.374Z,66.70
2018-06-21T23:32:26.821Z,67.20
2018-06-21T23:34:55.248Z,68.10
2018-06-21T23:37:23.729Z,67.90
2018-06-21T23:39:52.529Z,67.50
2018-06-21T23:42:20.960Z,68.30
2018-06-21T23:44:49.481Z,68.90
2018-06-21T23:47:18.444Z,69.10
2018-06-21T23:49:46.860Z,69.00
2018-06-21T23:52:15.658Z,69.40
2018-06-21T23:54:44.128Z,70.60
2018-06-21T23:57:13.368Z,70.40
